createdAt,value
2023-08-14T00:00:56.650Z,97025.34
2023-08-14T00:03:23.265Z,97018.66
2023-08-14T00:05:51.054Z,97021.75
2023-08-14T00:08:17.761Z,97011.34
2023-08-14T00:10:44.207Z,97017.22
2023-08-14T00:13:10.699Z,97014.44
2023-08-14T00:15:37.285Z,97010.50
2023-08-14T00:18:03.771Z,97015.56
2023-08-14T00:20:30.244Z,97017.81
2023-08-14T00:22:56.726Z,97019.13
2023-08-14T00:25:23.239Z,97018.81
2023-08-14T00:27:49.732Z,97022.88
2023-08-14T00:30:16.237Z,97014.59
2023-08-14T00:32:42.761Z,97018.34
2023-08-14T00:35:10.552Z,97011.00
2023-08-14T00:37:37.065Z,97023.00
2023-08-14T00:40:03.525Z,97008.72
2023-08-14T00:42:30.004Z,97018.94
2023-08-14T00:44:56.554Z,97011.13
2023-08-14T00:47:23.068Z,97022.31
2023-08-14T00:49:49.547Z,97016.13
2023-08-14T00:52:16.240Z,97017.28
2023-08-14T00:54:47.141Z,97014.66
2023-08-14T00:57:13.671Z,97011.25
2023-08-14T00:59:40.132Z,97009.47
2023-08-14T01:02:06.705Z,97006.38
2023-08-14T01:04:33.268Z,97005.06
2023-08-14T01:07:00.987Z,96996.94
2023-08-14T01:09:29.324Z,96998.06
2023-08-14T01:11:55.844Z,96994.50
2023-08-14T01:14:22.318Z,97005.38
2023-08-14T01:16:48.781Z,96996.28
2023-08-14T01:19:15.264Z,96992.69
2023-08-14T01:21:41.734Z,96996.28
2023-08-14T01:24:08.215Z,96993.50
2023-08-14T01:26:34.750Z,96984.72
2023-08-14T01:29:03.734Z,96986.16
2023-08-14T01:31:30.903Z,96994.44
2023-08-14T01:33:57.425Z,96986.44
2023-08-14T01:36:23.947Z,96972.16
2023-08-14T01:38:50.390Z,96968.22
2023-08-14T01:41:16.847Z,96963.28
2023-08-14T01:43:43.328Z,96957.59
2023-08-14T01:46:09.846Z,96954.94
2023-08-14T01:48:36.335Z,96967.97
2023-08-14T01:51:02.782Z,96962.09
2023-08-14T01:53:29.317Z,96967.00
2023-08-14T01:55:55.805Z,96950.59
2023-08-14T01:58:22.321Z,96955.31
2023-08-14T02:00:48.858Z,96964.59
2023-08-14T02:03:15.383Z,96960.66
2023-08-14T02:05:41.911Z,96957.22
2023-08-14T02:08:08.399Z,96954.78
2023-08-14T02:10:34.872Z,96956.72
2023-08-14T02:13:01.270Z,96945.03
2023-08-14T02:15:27.846Z,96947.19
2023-08-14T02:17:54.380Z,96948.13
2023-08-14T02:20:20.880Z,96953.66
2023-08-14T02:22:47.277Z,96955.94
2023-08-14T02:25:13.774Z,96963.59
2023-08-14T02:27:40.171Z,96965.88
2023-08-14T02:30:06.619Z,96969.56
2023-08-14T02:32:33.237Z,96970.06
2023-08-14T02:34:59.902Z,96967.97
2023-08-14T02:37:26.422Z,96969.41
2023-08-14T02:39:52.965Z,96970.69
2023-08-14T02:42:19.738Z,96973.44
2023-08-14T02:44:46.637Z,96973.25
2023-08-14T02:47:13.061Z,96972.44
2023-08-14T02:49:39.502Z,96965.16
2023-08-14T02:52:05.973Z,96958.00
2023-08-14T02:54:32.433Z,96959.97
2023-08-14T02:56:59.048Z,96961.41
2023-08-14T02:59:25.550Z,96962.53
2023-08-14T03:01:52.196Z,96957.31
2023-08-14T03:04:18.726Z,96962.53
2023-08-14T03:06:45.177Z,96967.25
2023-08-14T03:09:11.669Z,96972.44
2023-08-14T03:11:38.126Z,96975.94
2023-08-14T03:14:04.557Z,96972.97
2023-08-14T03:16:31.037Z,96977.81
2023-08-14T03:18:57.519Z,96977.22
2023-08-14T03:21:24.065Z,96982.53
2023-08-14T03:23:50.520Z,96974.59
2023-08-14T03:26:17.154Z,96982.19
2023-08-14T03:28:43.630Z,96974.41
2023-08-14T03:31:10.184Z,96970.97
2023-08-14T03:33:36.620Z,96971.09
2023-08-14T03:36:03.050Z,96978.25
2023-08-14T03:38:29.749Z,96975.50
2023-08-14T03:40:56.223Z,96981.81
2023-08-14T03:43:22.676Z,96978.06
2023-08-14T03:45:49.190Z,96967.84
2023-08-14T03:48:15.653Z,96966.31
2023-08-14T03:50:42.128Z,96975.06
2023-08-14T03:53:08.682Z,96970.28
2023-08-14T03:55:35.206Z,96971.09
2023-08-14T03:58:01.601Z,96972.38
2023-08-14T04:00:28.055Z,96979.81
2023-08-14T04:02:56.581Z,96983.25
2023-08-14T04:05:23.135Z,96982.94
2023-08-14T04:07:49.554Z,96982.66
2023-08-14T04:10:16.022Z,96978.44
2023-08-14T04:12:42.539Z,96974.97
2023-08-14T04:15:10.256Z,96968.97
2023-08-14T04:17:36.746Z,96970.09
2023-08-14T04:20:03.239Z,96974.81
2023-08-14T04:22:30.924Z,96975.13
2023-08-14T04:24:57.365Z,96977.56
2023-08-14T04:27:23.777Z,96991.75
2023-08-14T04:29:50.228Z,96986.88
2023-08-14T04:32:16.936Z,96978.22
2023-08-14T04:34:43.705Z,96981.72
2023-08-14T04:37:10.138Z,96986.13
2023-08-14T04:39:36.581Z,96985.31
2023-08-14T04:42:03.022Z,96987.75
2023-08-14T04:44:29.480Z,96985.59
2023-08-14T04:47:00.192Z,96999.09
2023-08-14T04:49:27.369Z,96992.44
2023-08-14T04:51:53.882Z,96997.16
2023-08-14T04:54:20.511Z,96996.34
2023-08-14T04:56:47.054Z,96995.72
2023-08-14T04:59:13.531Z,96987.94
2023-08-14T05:01:40.062Z,96995.56
2023-08-14T05:04:06.769Z,96994.16
2023-08-14T05:06:33.396Z,96998.03
2023-08-14T05:09:02.277Z,97008.06
2023-08-14T05:11:30.960Z,97005.91
2023-08-14T05:14:00.281Z,97001.88
2023-08-14T05:16:26.784Z,97003.91
2023-08-14T05:18:53.314Z,97002.59
2023-08-14T05:21:19.835Z,96995.13
2023-08-14T05:23:46.414Z,96995.66
2023-08-14T05:26:12.963Z,96990.44
2023-08-14T05:28:39.501Z,96992.38
2023-08-14T05:31:06.006Z,96994.00
2023-08-14T05:33:32.487Z,96986.84
2023-08-14T05:35:58.980Z,96979.69
2023-08-14T05:38:25.417Z,96990.72
2023-08-14T05:40:53.082Z,96995.13
2023-08-14T05:43:19.564Z,96994.31
2023-08-14T05:45:46.086Z,96999.53
2023-08-14T05:48:12.696Z,97003.91
2023-08-14T05:50:41.982Z,97003.91
2023-08-14T05:53:08.431Z,96993.47
2023-08-14T05:55:34.820Z,96997.38
2023-08-14T05:58:01.328Z,96997.38
2023-08-14T06:00:27.778Z,96994.09
2023-08-14T06:02:54.423Z,96993.47
2023-08-14T06:05:24.381Z,96999.00
2023-08-14T06:07:52.202Z,96996.25
2023-08-14T06:10:18.825Z,97000.63
2023-08-14T06:12:45.329Z,96993.47
2023-08-14T06:15:11.735Z,96987.16
2023-08-14T06:17:38.176Z,96983.28
2023-08-14T06:20:04.603Z,96981.34
2023-08-14T06:22:31.003Z,96995.13
2023-08-14T06:24:57.506Z,97001.47
2023-08-14T06:27:23.934Z,97006.78
2023-08-14T06:29:52.601Z,97010.34
2023-08-14T06:32:19.246Z,97014.75
2023-08-14T06:34:45.918Z,97027.09
2023-08-14T06:37:12.381Z,97023.53
2023-08-14T06:39:38.792Z,97029.88
2023-08-14T06:42:05.245Z,97035.38
2023-08-14T06:44:31.714Z,97041.69
2023-08-14T06:46:58.174Z,97045.28
2023-08-14T06:49:24.655Z,97040.91
2023-08-14T06:51:51.097Z,97053.88
2023-08-14T06:54:17.496Z,97062.97
2023-08-14T06:56:44.037Z,97071.25
2023-08-14T06:59:10.497Z,97072.34
2023-08-14T07:01:36.934Z,97078.50
2023-08-14T07:04:03.401Z,97071.84
2023-08-14T07:06:29.877Z,97072.34
2023-08-14T07:08:56.332Z,97062.34
2023-08-14T07:11:22.801Z,97061.53
2023-08-14T07:13:49.246Z,97074.69
2023-08-14T07:16:17.424Z,97066.59
2023-08-14T07:18:43.966Z,97066.00
2023-08-14T07:21:10.440Z,97067.00
2023-08-14T07:23:36.879Z,97059.25
2023-08-14T07:26:03.370Z,97063.63
2023-08-14T07:28:29.829Z,97065.47
2023-08-14T07:30:59.252Z,97054.09
2023-08-14T07:33:25.790Z,97061.78
2023-08-14T07:35:52.831Z,97077.72
2023-08-14T07:38:19.544Z,97091.53
2023-08-14T07:40:55.025Z,97094.91
2023-08-14T07:43:21.512Z,97102.97
2023-08-14T07:45:47.985Z,97121.44
2023-08-14T07:48:15.912Z,97127.81
2023-08-14T07:50:43.941Z,97127.59
2023-08-14T07:53:12.860Z,97133.97
2023-08-14T07:55:39.335Z,97127.53
2023-08-14T07:58:05.774Z,97128.13
2023-08-14T08:00:32.205Z,97126.41
2023-08-14T08:03:11.937Z,97129.16
2023-08-14T08:05:44.114Z,97121.91
2023-08-14T08:08:17.812Z,97130.91
2023-08-14T08:10:48.659Z,97138.56
2023-08-14T08:13:15.067Z,97140.09
2023-08-14T08:18:24.055Z,97156.16
2023-08-14T08:20:50.517Z,97162.66
2023-08-14T08:23:28.049Z,97173.09
2023-08-14T08:25:54.554Z,97169.78
2023-08-14T08:28:21.148Z,97182.78
2023-08-14T08:30:47.592Z,97187.31
2023-08-14T08:33:26.959Z,97193.38
2023-08-14T08:35:56.070Z,97209.81
2023-08-14T08:38:22.593Z,97222.25
2023-08-14T08:40:49.022Z,97230.50
2023-08-14T08:43:16.638Z,97234.66
2023-08-14T08:45:43.070Z,97234.28
2023-08-14T08:48:09.650Z,97230.44
2023-08-14T08:50:36.267Z,97209.69
2023-08-14T08:53:02.688Z,97208.56
2023-08-14T08:55:29.977Z,97202.00
2023-08-14T08:57:56.556Z,97205.69
2023-08-14T09:00:25.784Z,97200.09
2023-08-14T09:02:52.603Z,97197.16
2023-08-14T09:05:19.124Z,97195.56
2023-08-14T09:07:47.242Z,97198.81
2023-08-14T09:10:15.573Z,97187.59
2023-08-14T09:12:44.098Z,97197.00
2023-08-14T09:15:10.720Z,97192.81
2023-08-14T09:17:37.373Z,97190.34
2023-08-14T09:20:11.908Z,97180.25
2023-08-14T09:22:42.050Z,97185.44
2023-08-14T09:25:08.462Z,97173.06
2023-08-14T09:27:34.931Z,97165.41
2023-08-14T09:30:02.638Z,97164.28
2023-08-14T09:32:29.251Z,97171.44
2023-08-14T09:34:55.755Z,97171.63
2023-08-14T09:37:22.235Z,97171.84
2023-08-14T09:39:48.682Z,97171.94
2023-08-14T09:42:15.120Z,97162.00
2023-08-14T09:44:41.640Z,97153.94
2023-08-14T09:47:08.167Z,97168.47
2023-08-14T09:49:34.692Z,97173.19
2023-08-14T09:52:01.167Z,97163.34
2023-08-14T09:54:32.243Z,97170.19
2023-08-14T09:57:01.964Z,97172.34
2023-08-14T09:59:28.417Z,97165.59
2023-08-14T10:01:55.107Z,97172.63
2023-08-14T10:04:21.550Z,97166.69
2023-08-14T10:06:48.108Z,97161.66
2023-08-14T10:09:14.553Z,97155.81
2023-08-14T10:11:41.004Z,97148.75
2023-08-14T10:14:07.647Z,97152.50
2023-08-14T10:16:38.399Z,97152.44
2023-08-14T10:19:04.877Z,97145.91
2023-08-14T10:21:31.364Z,97142.53
2023-08-14T10:23:57.979Z,97139.63
2023-08-14T10:26:26.681Z,97138.50
2023-08-14T10:28:54.309Z,97130.53
2023-08-14T10:31:20.912Z,97119.06
2023-08-14T10:33:53.422Z,97117.84
2023-08-14T10:36:19.861Z,97118.84
2023-08-14T10:38:46.291Z,97113.31
2023-08-14T10:41:12.799Z,97110.41
2023-08-14T10:43:39.373Z,97102.81
2023-08-14T10:46:05.994Z,97092.97
2023-08-14T10:48:32.486Z,97087.81
2023-08-14T10:50:58.978Z,97091.38
2023-08-14T10:53:25.498Z,97096.78
2023-08-14T10:55:51.936Z,97095.94
2023-08-14T10:58:18.373Z,97094.66
2023-08-14T11:00:44.815Z,97080.84
2023-08-14T11:03:11.320Z,97076.75
2023-08-14T11:05:37.768Z,97067.50
2023-08-14T11:08:04.229Z,97059.25
2023-08-14T11:10:30.655Z,97054.41
2023-08-14T11:12:57.088Z,97056.59
2023-08-14T11:15:23.642Z,97036.13
2023-08-14T11:17:51.406Z,97033.25
2023-08-14T11:20:17.901Z,97031.78
2023-08-14T11:22:44.335Z,97031.13
2023-08-14T11:25:10.810Z,97024.31
2023-08-14T11:27:37.243Z,97012.13
2023-08-14T11:30:06.375Z,97010.03
2023-08-14T11:32:38.460Z,97005.81
2023-08-14T11:35:04.940Z,97014.38
2023-08-14T11:37:31.359Z,97021.72
2023-08-14T11:39:57.832Z,97027.06
2023-08-14T11:42:24.769Z,97014.22
2023-08-14T11:44:57.428Z,97017.16
2023-08-14T11:47:24.060Z,97015.03
2023-08-14T11:49:50.604Z,97012.94
2023-08-14T11:52:17.387Z,97010.03
2023-08-14T11:54:51.624Z,97019.97
2023-08-14T11:57:18.051Z,97014.13
2023-08-14T11:59:44.483Z,97013.94
2023-08-14T12:02:10.998Z,97009.53
2023-08-14T12:04:37.477Z,97007.41
2023-08-14T12:07:03.989Z,97000.44
2023-08-14T12:09:30.432Z,96996.69
2023-08-14T12:11:56.973Z,96988.56
2023-08-14T12:14:23.429Z,96995.06
2023-08-14T12:16:49.946Z,96986.75
2023-08-14T12:19:17.447Z,96988.03
2023-08-14T12:21:46.713Z,96981.72
2023-08-14T12:24:13.196Z,96977.31
2023-08-14T12:26:42.217Z,96970.84
2023-08-14T12:29:08.992Z,96977.66
2023-08-14T12:31:35.570Z,96976.69
2023-08-14T12:34:06.866Z,96977.97
2023-08-14T12:36:34.235Z,96966.44
2023-08-14T12:39:00.661Z,96968.06
2023-08-14T12:41:27.190Z,96966.25
2023-08-14T12:43:53.784Z,96971.97
2023-08-14T12:46:20.373Z,96970.19
2023-08-14T12:48:46.894Z,96979.59
2023-08-14T12:51:13.491Z,96978.63
2023-08-14T12:53:40.001Z,96975.88
2023-08-14T12:56:06.518Z,96964.47
2023-08-14T12:58:33.153Z,96966.00
2023-08-14T13:01:04.971Z,96962.38
2023-08-14T13:03:37.134Z,96960.94
2023-08-14T13:06:04.670Z,96952.28
2023-08-14T13:08:31.159Z,96947.94
2023-08-14T13:10:57.578Z,96951.63
2023-08-14T13:13:24.026Z,96941.88
2023-08-14T13:15:50.562Z,96934.56
2023-08-14T13:18:17.116Z,96934.88
2023-08-14T13:20:43.577Z,96943.03
2023-08-14T13:23:10.049Z,96938.31
2023-08-14T13:25:41.829Z,96934.56
2023-08-14T13:28:08.947Z,96939.78
2023-08-14T13:30:35.509Z,96934.56
2023-08-14T13:33:01.982Z,96938.31
2023-08-14T13:35:28.493Z,96936.53
2023-08-14T13:37:56.583Z,96933.91
2023-08-14T13:40:23.082Z,96935.88
2023-08-14T13:42:49.640Z,96931.94
2023-08-14T13:45:18.568Z,96936.53
2023-08-14T13:47:53.790Z,96944.19
2023-08-14T13:50:31.740Z,96947.59
2023-08-14T13:52:59.942Z,96953.78
2023-08-14T13:55:26.409Z,96942.84
2023-08-14T13:57:59.936Z,96928.66
2023-08-14T14:00:29.286Z,96927.19
2023-08-14T14:02:56.437Z,96927.16
2023-08-14T14:05:23.142Z,96925.38
2023-08-14T14:07:53.917Z,96918.84
2023-08-14T14:10:22.087Z,96914.81
2023-08-14T14:13:01.545Z,96905.84
2023-08-14T14:15:29.385Z,96898.50
2023-08-14T14:17:55.989Z,96885.09
2023-08-14T14:20:22.653Z,96892.44
2023-08-14T14:22:49.507Z,96895.69
2023-08-14T14:25:15.965Z,96884.91
2023-08-14T14:27:42.480Z,96877.34
2023-08-14T14:30:08.955Z,96874.28
2023-08-14T14:32:35.471Z,96879.94
2023-08-14T14:35:01.931Z,96882.53
2023-08-14T14:37:28.439Z,96888.22
2023-08-14T14:39:55.000Z,96883.63
2023-08-14T14:42:23.450Z,96888.53
2023-08-14T14:44:49.929Z,96880.38
2023-08-14T14:47:16.381Z,96882.47
2023-08-14T14:49:42.830Z,96884.78
2023-08-14T14:52:09.320Z,96886.50
2023-08-14T14:54:35.744Z,96887.22
2023-08-14T14:57:02.228Z,96876.47
2023-08-14T14:59:28.722Z,96878.09
2023-08-14T15:01:56.117Z,96881.34
2023-08-14T15:04:22.563Z,96878.69
2023-08-14T15:06:49.052Z,96873.09
2023-08-14T15:09:15.494Z,96874.22
2023-08-14T15:11:41.987Z,96866.09
2023-08-14T15:14:08.556Z,96872.56
2023-08-14T15:16:35.103Z,96877.31
2023-08-14T15:19:01.548Z,96872.97
2023-08-14T15:21:27.954Z,96874.78
2023-08-14T15:23:54.403Z,96878.03
2023-08-14T15:26:20.824Z,96877.50
2023-08-14T15:28:47.249Z,96886.63
2023-08-14T15:31:13.740Z,96880.75
2023-08-14T15:33:40.346Z,96877.56
2023-08-14T15:36:06.843Z,96879.94
2023-08-14T15:38:33.346Z,96871.91
2023-08-14T15:40:59.856Z,96878.75
2023-08-14T15:43:26.402Z,96881.06
2023-08-14T15:45:52.992Z,96879.25
2023-08-14T15:48:19.498Z,96875.13
2023-08-14T15:50:47.714Z,96879.47
2023-08-14T15:53:15.633Z,96869.97
2023-08-14T15:55:42.081Z,96874.59
2023-08-14T15:58:09.755Z,96874.31
2023-08-14T16:00:36.234Z,96876.41
2023-08-14T16:03:03.661Z,96875.38
2023-08-14T16:05:31.224Z,96877.94
2023-08-14T16:07:57.656Z,96876.69
2023-08-14T16:10:24.158Z,96883.78
2023-08-14T16:12:50.652Z,96889.41
2023-08-14T16:15:19.946Z,96886.44
2023-08-14T16:17:46.495Z,96892.41
2023-08-14T16:20:12.917Z,96889.88
2023-08-14T16:22:39.353Z,96881.63
2023-08-14T16:25:05.826Z,96885.19
2023-08-14T16:27:32.307Z,96883.59
2023-08-14T16:29:58.855Z,96887.72
2023-08-14T16:32:25.281Z,96882.88
2023-08-14T16:34:51.919Z,96889.97
2023-08-14T16:37:18.710Z,96881.75
2023-08-14T16:39:45.598Z,96888.47
2023-08-14T16:42:12.185Z,96885.16
2023-08-14T16:44:38.654Z,96889.91
2023-08-14T16:47:05.161Z,96880.03
2023-08-14T16:49:31.664Z,96879.00
2023-08-14T16:51:58.114Z,96882.53
2023-08-14T16:54:24.643Z,96882.22
2023-08-14T16:56:51.126Z,96886.34
2023-08-14T16:59:17.567Z,96884.50
2023-08-14T17:01:44.003Z,96880.28
2023-08-14T17:04:13.298Z,96890.00
2023-08-14T17:06:39.833Z,96877.69
2023-08-14T17:09:09.054Z,96889.25
2023-08-14T17:11:38.299Z,96889.44
2023-08-14T17:14:04.777Z,96896.03
2023-08-14T17:16:32.363Z,96898.91
2023-08-14T17:19:01.908Z,96895.69
2023-08-14T17:21:28.379Z,96892.94
2023-08-14T17:23:54.905Z,96894.41
2023-08-14T17:26:21.503Z,96892.78
2023-08-14T17:28:48.010Z,96883.94
2023-08-14T17:31:14.470Z,96868.69
2023-08-14T17:33:40.922Z,96874.50
2023-08-14T17:36:07.449Z,96871.41
2023-08-14T17:38:38.844Z,96861.81
2023-08-14T17:41:07.380Z,96857.78
2023-08-14T17:43:38.124Z,96856.00
2023-08-14T17:46:04.606Z,96865.63
2023-08-14T17:48:31.091Z,96866.13
2023-08-14T17:50:57.632Z,96868.31
2023-08-14T17:53:24.129Z,96866.34
2023-08-14T17:55:58.499Z,96865.97
2023-08-14T17:58:25.060Z,96866.88
2023-08-14T18:00:51.554Z,96872.09
2023-08-14T18:05:48.830Z,96876.75
2023-08-14T18:08:16.516Z,96887.16
2023-08-14T18:13:22.789Z,96890.91
2023-08-14T18:15:49.336Z,96890.13
2023-08-14T18:20:53.568Z,96898.41
2023-08-14T18:23:20.103Z,96902.19
2023-08-14T18:25:46.504Z,96894.09
2023-08-14T18:28:12.958Z,96891.78
2023-08-14T18:30:39.364Z,96889.69
2023-08-14T18:33:05.893Z,96891.84
2023-08-14T18:35:32.359Z,96894.50
2023-08-14T18:37:58.983Z,96902.81
2023-08-14T18:40:25.560Z,96899.78
2023-08-14T18:42:52.060Z,96894.34
2023-08-14T18:45:24.774Z,96889.81
2023-08-14T18:47:51.243Z,96887.50
2023-08-14T18:50:17.851Z,96885.06
2023-08-14T18:52:44.992Z,96889.56
2023-08-14T18:55:11.404Z,96889.56
2023-08-14T18:57:37.824Z,96889.56
2023-08-14T19:00:04.258Z,96892.78
2023-08-14T19:02:30.742Z,96900.31
2023-08-14T19:04:57.220Z,96906.31
2023-08-14T19:07:23.817Z,96907.94
2023-08-14T19:09:50.311Z,96913.03
2023-08-14T19:12:16.730Z,96915.31
2023-08-14T19:14:43.166Z,96914.97
2023-08-14T19:17:09.754Z,96918.44
2023-08-14T19:19:36.199Z,96923.19
2023-08-14T19:22:02.742Z,96922.31
2023-08-14T19:24:29.213Z,96933.41
2023-08-14T19:26:55.625Z,96947.28
2023-08-14T19:29:22.064Z,96951.72
2023-08-14T19:31:48.499Z,96954.00
2023-08-14T19:34:14.962Z,96962.16
2023-08-14T19:36:41.453Z,96965.75
2023-08-14T19:39:09.178Z,96975.03
2023-08-14T19:41:35.657Z,96985.00
2023-08-14T19:44:02.207Z,96983.22
2023-08-14T19:46:30.943Z,96990.72
2023-08-14T19:48:57.424Z,97009.66
2023-08-14T19:51:23.866Z,97013.91
2023-08-14T19:53:51.564Z,97012.78
2023-08-14T19:56:18.060Z,97015.38
2023-08-14T19:58:44.653Z,97013.44
2023-08-14T20:01:11.225Z,97010.03
2023-08-14T20:03:40.954Z,97020.66
2023-08-14T20:06:07.416Z,97017.53
2023-08-14T20:08:35.140Z,97017.22
2023-08-14T20:11:01.665Z,97017.53
2023-08-14T20:13:28.255Z,97022.94
2023-08-14T20:15:57.239Z,97020.34
2023-08-14T20:18:26.847Z,97016.47
2023-08-14T20:20:53.347Z,97011.59
2023-08-14T20:23:19.821Z,97021.75
2023-08-14T20:25:46.338Z,97034.31
2023-08-14T20:28:12.865Z,97030.75
2023-08-14T20:30:39.300Z,97033.00
2023-08-14T20:33:05.785Z,97027.81
2023-08-14T20:35:32.235Z,97028.03
2023-08-14T20:37:58.692Z,97037.47
2023-08-14T20:40:25.222Z,97035.81
2023-08-14T20:42:51.648Z,97055.06
2023-08-14T20:45:18.095Z,97054.41
2023-08-14T20:47:44.554Z,97055.53
2023-08-14T20:50:11.172Z,97060.41
2023-08-14T20:52:37.602Z,97063.03
2023-08-14T20:55:04.107Z,97065.81
2023-08-14T20:57:30.586Z,97074.63
2023-08-14T20:59:57.021Z,97080.81
2023-08-14T21:02:23.659Z,97073.97
2023-08-14T21:04:50.148Z,97075.91
2023-08-14T21:07:16.639Z,97079.00
2023-08-14T21:09:43.395Z,97070.22
2023-08-14T21:12:09.929Z,97073.47
2023-08-14T21:14:36.460Z,97076.09
2023-08-14T21:17:02.894Z,97075.78
2023-08-14T21:19:29.381Z,97086.34
2023-08-14T21:21:55.781Z,97082.44
2023-08-14T21:24:22.277Z,97093.19
2023-08-14T21:26:48.948Z,97092.19
2023-08-14T21:29:15.342Z,97087.97
2023-08-14T21:31:41.796Z,97088.09
2023-08-14T21:34:08.333Z,97077.03
2023-08-14T21:36:34.799Z,97081.91
2023-08-14T21:39:01.236Z,97074.25
2023-08-14T21:41:27.670Z,97082.09
2023-08-14T21:43:54.137Z,97079.13
2023-08-14T21:46:20.631Z,97075.56
2023-08-14T21:48:47.105Z,97082.38
2023-08-14T21:51:13.496Z,97078.47
2023-08-14T21:53:42.972Z,97083.69
2023-08-14T21:56:09.411Z,97083.38
2023-08-14T21:58:35.817Z,97074.78
2023-08-14T22:01:02.308Z,97070.03
2023-08-14T22:03:28.745Z,97065.97
2023-08-14T22:05:55.124Z,97072.34
2023-08-14T22:08:21.561Z,97073.94
2023-08-14T22:10:50.428Z,97075.44
2023-08-14T22:13:16.899Z,97076.13
2023-08-14T22:15:46.500Z,97073.16
2023-08-14T22:18:13.274Z,97080.16
2023-08-14T22:20:39.708Z,97072.50
2023-08-14T22:23:06.180Z,97080.00
2023-08-14T22:25:32.626Z,97072.47
2023-08-14T22:27:59.045Z,97075.44
2023-08-14T22:30:25.508Z,97086.16
2023-08-14T22:32:52.073Z,97096.28
2023-08-14T22:35:18.571Z,97085.00
2023-08-14T22:37:47.970Z,97097.88
2023-08-14T22:40:14.397Z,97096.94
2023-08-14T22:42:40.854Z,97087.63
2023-08-14T22:45:07.253Z,97089.91
2023-08-14T22:47:33.707Z,97086.19
2023-08-14T22:50:00.291Z,97099.03
2023-08-14T22:52:26.705Z,97096.09
2023-08-14T22:54:53.122Z,97097.38
2023-08-14T22:57:19.741Z,97100.94
2023-08-14T22:59:46.386Z,97099.31
2023-08-14T23:02:12.829Z,97086.97
2023-08-14T23:04:39.257Z,97088.91
2023-08-14T23:07:05.678Z,97077.50
2023-08-14T23:09:32.190Z,97088.91
2023-08-14T23:12:00.589Z,97088.91
2023-08-14T23:14:27.080Z,97090.19
2023-08-14T23:16:53.556Z,97074.06
2023-08-14T23:19:20.074Z,97070.50
2023-08-14T23:21:46.588Z,97068.22
2023-08-14T23:24:15.192Z,97052.59
2023-08-14T23:26:41.621Z,97058.28
2023-08-14T23:29:08.065Z,97056.81
2023-08-14T23:31:34.643Z,97060.25
2023-08-14T23:34:01.257Z,97054.38
2023-08-14T23:36:27.758Z,97052.25
2023-08-14T23:38:54.227Z,97051.78
2023-08-14T23:41:20.895Z,97044.28
2023-08-14T23:43:47.353Z,97047.72
2023-08-14T23:46:13.872Z,97048.22
2023-08-14T23:48:40.395Z,97054.69
2023-08-14T23:51:06.881Z,97052.25
2023-08-14T23:53:33.897Z,97055.34
2023-08-14T23:56:00.411Z,97054.88
2023-08-14T23:58:26.870Z,97047.69
